Terminal Aerodrome Forecast
Issued by NWS

Home | Current Version | Previous Version | Text Only | Print | Product List | Glossary On
Versions: 1 2 3 4 5 6 7 8 9 10 11 12 13 14 15 16 17 18
000
FTUS43 KMQT 061737
TAFCMX
TAF
KCMX 061737Z 0618/0718 27020G27KT P6SM BKN090
     FM062300 26012G18KT P6SM SCT060
     FM070200 26009KT P6SM BKN100
     FM070700 23006KT 6SM -SN OVC050
     FM071000 23006KT 2SM -SN OVC025
     FM071300 27010G16KT 4SM -SN OVC020
     FM071600 29014G20KT P6SM OVC020=

USA.gov is the U.S. government's official web portal to all federal, state and local government web resources and services.